sim
Sign-in with your pilot id or email,
or register
Callsign
Passwort

Schedule Details

Flight Number: OEO1763
Departure: Turin Caselle Airport (LIMF) at 08:30
Arrival: Munich Airport (EDDM) at 09:45

Weather Information
Getting current METAR information for LIMF 260050Z VRB03KT CAVOK 09/04 Q0997
Getting current METAR information for EDDM 260050Z 26011KT 9999 -RA FEW013 BKN028 07/06 Q1000 NOSIG

Schedule Frequency

Route Map